Time;durP1;ratioP1;P1;durP2;ratioP2;P2;SDS_P1;SDS_P2;PMS_P1;PMS_P2;Temp;Humidity;BMP_temperature;BMP_pressure;BME280_temperature;BME280_humidity;BME280_pressure;Samples;Min_cycle;Max_cycle;Signal;HPM_P1;HPM_P2
2020/12/06 00:02:09;;;;;;;12.32;1.50;;;14.40;59.20;;;;;;5032923;28;20033;-54
2020/12/06 00:04:34;;;;;;;10.60;1.83;;;14.40;59.30;;;;;;5032847;28;20120;-57
2020/12/06 00:07:00;;;;;;;10.70;1.75;;;14.40;59.10;;;;;;5032986;28;20021;-55
2020/12/06 00:09:26;;;;;;;9.75;1.52;;;14.50;59.00;;;;;;5032888;28;20037;-57
2020/12/06 00:11:56;;;;;;;12.57;1.98;;;14.40;59.20;;;;;;5032930;28;20017;-56
2020/12/06 00:14:22;;;;;;;11.18;2.25;;;14.40;59.00;;;;;;5032714;28;20037;-56
2020/12/06 00:16:48;;;;;;;10.35;1.90;;;14.40;59.10;;;;;;5032599;28;20421;-57
2020/12/06 00:19:14;;;;;;;12.32;1.88;;;14.40;59.20;;;;;;5032453;28;20096;-56
2020/12/06 00:21:40;;;;;;;13.32;1.85;;;14.40;59.40;;;;;;5032435;28;20021;-57
2020/12/06 00:24:06;;;;;;;11.95;2.03;;;14.40;59.10;;;;;;5032431;28;20072;-57
2020/12/06 00:26:32;;;;;;;11.50;1.80;;;14.40;59.20;;;;;;5035009;28;20170;-55
2020/12/06 00:28:58;;;;;;;15.18;1.98;;;14.40;59.00;;;;;;5035992;28;20037;-55
2020/12/06 00:31:24;;;;;;;11.30;2.00;;;14.40;59.20;;;;;;5036101;28;20013;-57
2020/12/06 00:33:50;;;;;;;15.68;2.67;;;14.40;59.10;;;;;;5035912;28;20119;-53
2020/12/06 00:36:16;;;;;;;8.13;1.60;;;14.40;59.20;;;;;;5035902;28;20474;-57
2020/12/06 00:38:42;;;;;;;10.63;1.80;;;14.40;59.30;;;;;;5036085;28;20053;-56
2020/12/06 00:41:14;;;;;;;10.52;1.63;;;14.40;59.50;;;;;;5036206;28;20389;-56
2020/12/06 00:43:42;;;;;;;13.38;1.98;;;14.40;59.40;;;;;;5036097;28;20381;-56
2020/12/06 00:46:07;;;;;;;7.72;1.75;;;14.40;59.30;;;;;;5035781;28;20026;-54
2020/12/06 00:48:33;;;;;;;8.50;1.60;;;14.40;59.60;;;;;;5035932;28;20032;-57
2020/12/06 00:51:00;;;;;;;10.48;1.83;;;14.40;59.70;;;;;;5035941;28;20026;-56
2020/12/06 00:53:25;;;;;;;8.50;1.75;;;14.40;59.60;;;;;;5035578;28;20053;-57
2020/12/06 00:55:51;;;;;;;8.75;1.70;;;14.40;59.40;;;;;;5035688;28;20077;-56
2020/12/06 00:58:17;;;;;;;12.38;1.55;;;14.40;59.40;;;;;;5035406;28;20461;-55
2020/12/06 01:00:44;;;;;;;9.07;1.52;;;14.40;59.40;;;;;;5035810;28;20053;-57
2020/12/06 01:03:10;;;;;;;10.77;1.77;;;14.40;59.20;;;;;;5035756;28;20049;-56
2020/12/06 01:05:36;;;;;;;11.40;1.83;;;14.30;59.20;;;;;;5035715;28;20111;-56
2020/12/06 01:08:01;;;;;;;10.20;1.67;;;14.40;59.20;;;;;;5035397;28;20090;-57
2020/12/06 01:10:27;;;;;;;8.85;1.63;;;14.40;59.10;;;;;;5035371;28;20116;-57
2020/12/06 01:12:53;;;;;;;12.05;1.98;;;14.40;59.60;;;;;;5035329;28;20033;-56
2020/12/06 01:15:19;;;;;;;13.38;1.92;;;14.40;59.70;;;;;;5035298;28;20029;-56
2020/12/06 01:17:46;;;;;;;9.25;1.58;;;14.40;59.60;;;;;;5035148;28;20033;-57
2020/12/06 01:20:11;;;;;;;8.30;1.45;;;14.40;59.50;;;;;;5035200;28;20155;-57
2020/12/06 01:22:37;;;;;;;8.52;1.85;;;14.40;59.90;;;;;;5035328;28;20057;-57
2020/12/06 01:25:05;;;;;;;8.55;1.40;;;14.40;59.90;;;;;;5035019;28;20075;-57
2020/12/06 01:27:32;;;;;;;12.98;1.63;;;14.30;59.60;;;;;;5035100;28;20489;-57
2020/12/06 01:29:58;;;;;;;6.90;1.40;;;14.30;59.60;;;;;;5034860;28;20025;-57
2020/12/06 01:32:24;;;;;;;10.40;1.60;;;14.30;59.80;;;;;;5035292;28;20027;-56
2020/12/06 01:34:50;;;;;;;8.23;1.50;;;14.30;59.00;;;;;;5035228;28;20108;-56
2020/12/06 01:37:16;;;;;;;9.43;1.83;;;14.40;59.10;;;;;;5034848;28;20431;-56
2020/12/06 01:39:42;;;;;;;8.15;1.67;;;14.30;58.80;;;;;;5034803;28;20112;-56
2020/12/06 01:42:07;;;;;;;10.73;1.85;;;14.40;58.80;;;;;;5034721;28;20061;-56
2020/12/06 01:44:33;;;;;;;7.55;1.42;;;14.40;59.00;;;;;;5034614;28;20025;-57
2020/12/06 01:47:00;;;;;;;14.88;2.03;;;14.40;58.90;;;;;;5034682;28;20025;-55
2020/12/06 01:49:35;;;;;;;6.93;2.03;;;14.40;58.90;;;;;;5034487;28;20478;-58
2020/12/06 01:52:02;;;;;;;6.53;1.52;;;14.30;58.90;;;;;;5034586;28;20029;-57
2020/12/06 01:54:28;;;;;;;10.55;1.92;;;14.40;58.70;;;;;;5034764;28;20030;-58
2020/12/06 01:56:54;;;;;;;12.13;1.60;;;14.30;58.60;;;;;;5034223;28;20049;-56
2020/12/06 01:59:20;;;;;;;10.50;1.95;;;14.30;58.70;;;;;;5034238;28;20045;-57
2020/12/06 02:01:59;;;;;;;6.13;1.40;;;14.40;58.80;;;;;;5034427;28;20033;-57
2020/12/06 02:04:26;;;;;;;9.95;2.03;;;14.40;58.60;;;;;;5034676;28;20026;-57
2020/12/06 02:06:53;;;;;;;9.85;1.75;;;14.30;58.50;;;;;;5034337;28;20034;-57
2020/12/06 02:09:20;;;;;;;9.57;1.85;;;14.30;58.40;;;;;;5034111;28;20021;-57
2020/12/06 02:11:46;;;;;;;8.82;2.17;;;14.30;58.70;;;;;;5034511;28;20441;-57
2020/12/06 02:14:12;;;;;;;5.35;1.42;;;14.40;58.40;;;;;;5033960;28;20021;-56
2020/12/06 02:16:38;;;;;;;7.22;1.52;;;14.30;58.70;;;;;;5034053;28;20458;-54
2020/12/06 02:19:06;;;;;;;11.50;1.98;;;14.30;58.40;;;;;;5034033;28;20044;-57
2020/12/06 02:21:34;;;;;;;8.32;1.77;;;14.30;58.30;;;;;;5034048;28;20485;-56
2020/12/06 02:24:02;;;;;;;8.77;1.80;;;14.40;58.50;;;;;;5033901;28;20033;-57
2020/12/06 02:26:27;;;;;;;8.45;1.80;;;14.30;58.20;;;;;;5033924;28;20021;-57
2020/12/06 02:28:53;;;;;;;7.90;1.50;;;14.30;58.30;;;;;;5033944;28;20072;-57
2020/12/06 02:31:19;;;;;;;9.40;1.70;;;14.30;59.30;;;;;;5033863;28;20017;-57
2020/12/06 02:33:46;;;;;;;9.90;2.25;;;14.30;59.40;;;;;;5033818;28;20083;-58
2020/12/06 02:36:12;;;;;;;6.38;1.52;;;14.30;60.30;;;;;;5033990;28;20041;-57
2020/12/06 02:38:38;;;;;;;6.47;1.55;;;14.20;60.90;;;;;;5033580;28;20551;-54
2020/12/06 02:41:04;;;;;;;9.30;1.67;;;14.30;61.80;;;;;;5033867;28;20055;-57
2020/12/06 02:43:30;;;;;;;5.50;1.63;;;14.20;62.00;;;;;;5033621;28;20382;-54
2020/12/06 02:45:55;;;;;;;7.13;2.42;;;14.20;62.90;;;;;;5016028;28;20107;-57
2020/12/06 02:48:21;;;;;;;7.25;1.83;;;14.20;62.90;;;;;;5033165;28;20018;-57
2020/12/06 02:50:47;;;;;;;11.75;1.80;;;14.10;63.30;;;;;;5033311;28;20029;-57
2020/12/06 02:53:13;;;;;;;9.88;1.88;;;14.10;63.40;;;;;;5033598;28;20021;-57
2020/12/06 02:55:39;;;;;;;9.48;2.20;;;14.10;63.50;;;;;;5033378;28;20148;-57
2020/12/06 02:58:04;;;;;;;10.43;1.98;;;14.10;63.50;;;;;;5033730;28;20504;-57
2020/12/06 03:00:30;;;;;;;13.70;2.00;;;14.10;62.90;;;;;;5033240;28;20394;-57
2020/12/06 03:02:56;;;;;;;8.00;2.03;;;14.00;62.60;;;;;;5033333;28;20116;-57
2020/12/06 03:05:22;;;;;;;7.22;1.75;;;14.00;62.40;;;;;;5033268;28;20022;-57
2020/12/06 03:07:48;;;;;;;6.22;1.55;;;14.00;61.50;;;;;;5040757;28;20029;-53
2020/12/06 03:10:14;;;;;;;10.50;2.15;;;14.00;61.40;;;;;;5041631;28;20028;-57
2020/12/06 03:12:39;;;;;;;6.22;1.50;;;14.10;61.50;;;;;;5053105;28;20082;-56
2020/12/06 03:15:05;;;;;;;5.35;1.15;;;14.10;61.10;;;;;;5053023;28;20029;-57
2020/12/06 03:17:31;;;;;;;6.35;1.50;;;14.10;61.10;;;;;;5053279;28;20025;-52
2020/12/06 03:19:57;;;;;;;7.65;1.20;;;14.10;60.40;;;;;;5053291;28;20385;-57
2020/12/06 03:22:22;;;;;;;5.07;1.45;;;14.10;60.90;;;;;;5052916;28;20018;-57
2020/12/06 03:24:48;;;;;;;3.75;1.58;;;14.10;60.70;;;;;;5053059;28;20036;-55
2020/12/06 03:27:14;;;;;;;5.38;1.23;;;14.10;60.20;;;;;;5053011;28;20025;-57
2020/12/06 03:29:40;;;;;;;7.20;1.35;;;14.00;59.70;;;;;;5052932;28;20029;-54
2020/12/06 03:32:06;;;;;;;4.50;1.20;;;14.10;59.60;;;;;;5052898;28;20104;-57
2020/12/06 03:34:31;;;;;;;5.85;1.60;;;14.10;59.50;;;;;;5053025;28;20032;-56
2020/12/06 03:36:57;;;;;;;4.72;0.90;;;14.10;59.40;;;;;;5052833;28;20025;-54
2020/12/06 03:39:23;;;;;;;8.75;1.42;;;14.10;59.10;;;;;;5052846;28;20060;-52
2020/12/06 03:41:49;;;;;;;4.45;1.00;;;14.10;59.20;;;;;;5035835;28;20053;-56
2020/12/06 03:44:15;;;;;;;3.55;0.95;;;14.20;59.00;;;;;;5033235;28;20034;-57
2020/12/06 03:46:41;;;;;;;6.20;1.00;;;14.20;58.90;;;;;;5033164;28;20351;-56
2020/12/06 03:49:06;;;;;;;6.80;1.40;;;14.20;59.20;;;;;;5032987;28;20109;-57
2020/12/06 03:51:32;;;;;;;11.65;1.65;;;14.10;59.00;;;;;;5032796;28;20025;-57
2020/12/06 03:53:58;;;;;;;7.40;1.20;;;14.10;59.10;;;;;;5032853;28;20032;-55
2020/12/06 03:56:24;;;;;;;5.15;1.42;;;14.10;59.10;;;;;;5032806;28;20456;-57
2020/12/06 03:58:50;;;;;;;10.77;1.30;;;14.10;58.80;;;;;;5032781;28;20454;-56
2020/12/06 04:01:15;;;;;;;4.63;1.30;;;14.20;58.40;;;;;;5035149;28;20224;-57
2020/12/06 04:03:41;;;;;;;6.90;1.35;;;14.20;58.30;;;;;;5036707;28;20029;-57
2020/12/06 04:06:07;;;;;;;5.60;0.95;;;14.20;57.80;;;;;;5036432;28;20034;-56
2020/12/06 04:08:33;;;;;;;8.27;1.08;;;14.20;57.60;;;;;;5036558;28;20507;-57
2020/12/06 04:10:59;;;;;;;3.28;1.00;;;14.20;57.80;;;;;;5036413;28;20155;-55
2020/12/06 04:13:24;;;;;;;9.23;1.38;;;14.20;58.10;;;;;;5036486;28;20038;-57
2020/12/06 04:15:50;;;;;;;7.07;1.45;;;14.20;57.40;;;;;;5036696;28;20021;-56
2020/12/06 04:18:16;;;;;;;6.07;1.02;;;14.20;57.40;;;;;;5036482;28;20470;-57
2020/12/06 04:20:42;;;;;;;8.98;1.40;;;14.30;57.10;;;;;;5036327;28;20112;-51
2020/12/06 04:23:08;;;;;;;4.72;1.40;;;14.30;56.70;;;;;;5036126;28;20029;-55
2020/12/06 04:25:33;;;;;;;7.25;1.30;;;14.30;56.90;;;;;;5036534;28;20025;-57
2020/12/06 04:27:59;;;;;;;6.38;1.20;;;14.30;57.00;;;;;;5036210;28;20466;-56
2020/12/06 04:30:25;;;;;;;6.53;1.23;;;14.30;56.20;;;;;;5036483;28;20025;-56
2020/12/06 04:32:51;;;;;;;7.15;1.70;;;14.30;56.10;;;;;;5036355;28;20473;-56
2020/12/06 04:35:17;;;;;;;6.93;1.35;;;14.30;56.30;;;;;;5036083;28;20489;-57
2020/12/06 04:37:43;;;;;;;8.40;1.48;;;14.30;56.10;;;;;;5036185;28;20457;-55
2020/12/06 04:40:08;;;;;;;9.32;1.73;;;14.30;56.20;;;;;;5036061;28;20053;-54
2020/12/06 04:42:35;;;;;;;6.55;1.55;;;14.30;56.10;;;;;;5036245;28;20033;-57
2020/12/06 04:45:01;;;;;;;5.60;1.33;;;14.30;55.60;;;;;;5035914;28;20029;-57
2020/12/06 04:47:51;;;;;;;6.60;1.88;;;14.30;55.90;;;;;;5036059;28;20033;-55
2020/12/06 04:50:31;;;;;;;4.70;1.55;;;14.30;55.50;;;;;;5036120;28;20036;-55
2020/12/06 04:52:58;;;;;;;6.22;1.65;;;14.30;55.60;;;;;;5035964;28;20533;-52
2020/12/06 04:55:35;;;;;;;3.92;1.17;;;14.30;55.40;;;;;;5035469;28;20050;-55
2020/12/06 04:58:04;;;;;;;4.68;1.17;;;14.30;55.40;;;;;;5035720;28;20025;-51
2020/12/06 05:00:36;;;;;;;8.75;1.40;;;14.30;55.10;;;;;;5035944;28;20038;-56
2020/12/06 05:03:05;;;;;;;;;;;14.30;55.10;;;;;;5036009;28;20072;-56
2020/12/06 05:05:35;;;;;;;6.25;1.83;;;14.30;55.50;;;;;;5035636;28;20361;-56
2020/12/06 05:08:09;;;;;;;3.15;1.20;;;14.30;55.40;;;;;;5035375;28;20018;-55
2020/12/06 05:10:37;;;;;;;8.63;1.38;;;14.30;55.50;;;;;;5035457;28;20505;-55
2020/12/06 05:13:03;;;;;;;4.95;1.25;;;14.30;55.40;;;;;;5035039;28;20032;-56
2020/12/06 05:15:29;;;;;;;5.28;1.25;;;14.30;56.10;;;;;;5035213;28;20029;-57
2020/12/06 05:17:56;;;;;;;9.77;1.88;;;14.30;56.20;;;;;;5035138;28;20041;-56
2020/12/06 05:20:21;;;;;;;5.65;1.60;;;14.20;56.30;;;;;;5035215;28;20423;-55
2020/12/06 05:22:47;;;;;;;4.22;1.30;;;14.20;56.40;;;;;;5035058;28;20080;-56
2020/12/06 05:25:14;;;;;;;4.88;1.23;;;14.20;56.40;;;;;;5035166;28;20064;-55
2020/12/06 05:27:40;;;;;;;5.22;1.20;;;14.20;56.40;;;;;;5034923;28;20030;-55
2020/12/06 05:30:07;;;;;;;5.65;1.27;;;14.20;56.20;;;;;;5035000;28;20478;-56
2020/12/06 05:32:33;;;;;;;6.60;1.13;;;14.30;55.80;;;;;;5034933;28;20029;-54
2020/12/06 05:35:00;;;;;;;3.97;1.10;;;14.30;55.80;;;;;;5035227;28;20025;-54
2020/12/06 05:37:26;;;;;;;6.68;1.35;;;14.30;56.20;;;;;;5034816;28;20076;-54
2020/12/06 05:40:08;;;;;;;7.38;1.73;;;14.30;56.00;;;;;;5034860;28;20029;-57
2020/12/06 05:42:36;;;;;;;5.18;1.45;;;14.30;58.10;;;;;;5034780;28;20075;-56
2020/12/06 05:45:02;;;;;;;8.77;2.85;;;14.20;57.60;;;;;;5034706;28;20025;-56
2020/12/06 05:47:28;;;;;;;24.17;15.35;;;14.20;58.10;;;;;;5034548;28;20493;-55
2020/12/06 05:49:56;;;;;;;15.95;12.45;;;14.20;59.20;;;;;;5034591;28;20033;-55
2020/12/06 05:52:23;;;;;;;7.25;2.53;;;14.10;59.20;;;;;;5034601;28;20115;-55
2020/12/06 05:54:49;;;;;;;6.05;2.25;;;14.10;60.80;;;;;;5034742;28;20073;-51
2020/12/06 05:57:15;;;;;;;7.82;2.33;;;14.00;61.50;;;;;;5034244;28;20037;-53
2020/12/06 05:59:42;;;;;;;7.50;2.15;;;14.00;61.20;;;;;;5034815;28;20386;-56
2020/12/06 06:02:09;;;;;;;9.30;4.38;;;14.00;62.50;;;;;;5034228;28;20022;-54
2020/12/06 06:04:39;;;;;;;12.85;3.40;;;14.00;63.70;;;;;;5034434;28;20091;-55
2020/12/06 06:07:12;;;;;;;16.13;2.75;;;14.00;64.60;;;;;;5034401;28;20482;-57
2020/12/06 06:09:42;;;;;;;15.02;2.60;;;13.90;66.00;;;;;;5034421;28;20069;-56
2020/12/06 06:12:30;;;;;;;9.45;2.95;;;13.90;67.40;;;;;;5034602;28;20367;-57
2020/12/06 06:14:59;;;;;;;14.07;2.70;;;13.90;68.00;;;;;;5034546;28;20029;-50
2020/12/06 06:17:27;;;;;;;6.88;2.22;;;13.90;69.40;;;;;;5034200;28;20084;-55
2020/12/06 06:19:54;;;;;;;13.15;2.88;;;13.90;70.50;;;;;;5034079;28;20474;-57
2020/12/06 06:22:25;;;;;;;12.48;2.45;;;13.90;71.20;;;;;;5033675;28;20021;-47
2020/12/06 06:24:52;;;;;;;;;;;13.90;72.00;;;;;;5034468;28;20385;-56
2020/12/06 06:27:19;;;;;;;9.32;2.40;;;13.80;73.20;;;;;;5034205;28;20277;-54
2020/12/06 06:29:44;;;;;;;12.07;2.88;;;13.80;73.60;;;;;;5033919;28;20030;-54
2020/12/06 06:32:11;;;;;;;18.38;7.93;;;13.80;78.00;;;;;;5048678;28;20437;-56
2020/12/06 06:34:38;;;;;;;14.68;5.18;;;13.70;79.30;;;;;;5048342;28;20041;-56
2020/12/06 06:37:15;;;;;;;13.82;3.08;;;13.70;88.50;;;;;;5033659;28;20022;-55
2020/12/06 06:39:42;;;;;;;17.30;3.55;;;13.70;91.50;;;;;;5034041;28;20064;-52
2020/12/06 06:42:12;;;;;;;10.32;2.17;;;13.60;90.70;;;;;;5033981;28;20021;-53
2020/12/06 06:44:43;;;;;;;10.13;3.30;;;13.40;88.50;;;;;;5033646;28;20018;-53
2020/12/06 06:47:13;;;;;;;7.53;2.63;;;13.40;90.40;;;;;;5033925;28;20120;-54
2020/12/06 06:49:59;;;;;;;12.00;3.75;;;13.50;92.80;;;;;;5033461;28;20470;-57
2020/12/06 06:52:27;;;;;;;9.55;3.58;;;13.50;93.10;;;;;;5033808;28;20029;-57
2020/12/06 06:54:55;;;;;;;8.48;3.80;;;13.40;94.90;;;;;;5033340;28;20021;-53
2020/12/06 06:57:22;;;;;;;12.40;3.55;;;13.40;97.40;;;;;;5033534;28;20045;-55
2020/12/06 06:59:59;;;;;;;18.80;4.25;;;13.30;95.50;;;;;;5033662;28;20033;-48
2020/12/06 07:02:38;;;;;;;20.15;4.72;;;13.10;99.90;;;;;;5033342;28;20026;-50
2020/12/06 07:05:26;;;;;;;9.45;3.83;;;13.00;99.90;;;;;;5033472;28;20033;-50
2020/12/06 07:07:53;;;;;;;12.43;3.47;;;13.00;99.90;;;;;;5033310;28;20025;-50
2020/12/06 07:10:21;;;;;;;16.75;4.25;;;12.80;99.90;;;;;;5033274;28;20501;-47
2020/12/06 07:12:47;;;;;;;9.70;3.47;;;13.00;99.90;;;;;;5033217;28;20022;-50
2020/12/06 07:15:15;;;;;;;6.53;3.08;;;13.10;99.90;;;;;;5033103;28;20549;-51
2020/12/06 07:17:41;;;;;;;9.52;3.47;;;13.00;99.90;;;;;;5033049;28;20033;-51
2020/12/06 07:20:09;;;;;;;8.10;3.15;;;13.00;99.90;;;;;;5036319;28;20037;-51
2020/12/06 07:22:36;;;;;;;13.45;5.13;;;13.00;99.90;;;;;;5052884;28;20079;-51
2020/12/06 07:25:04;;;;;;;8.30;3.25;;;12.70;99.90;;;;;;5053121;28;20061;-53
2020/12/06 07:27:29;;;;;;;11.00;3.63;;;12.70;99.90;;;;;;5053214;28;20414;-55
2020/12/06 07:29:55;;;;;;;5.28;2.58;;;12.80;99.90;;;;;;5053262;28;20052;-51
2020/12/06 07:32:21;;;;;;;8.88;2.85;;;12.80;99.90;;;;;;5053301;28;20425;-53
2020/12/06 07:34:50;;;;;;;11.23;3.50;;;12.70;99.90;;;;;;5054711;28;20021;-51
2020/12/06 07:37:16;;;;;;;6.18;2.55;;;12.70;99.90;;;;;;5057093;28;20103;-51
2020/12/06 07:39:43;;;;;;;8.95;2.58;;;12.50;99.90;;;;;;5056869;28;20025;-51
2020/12/06 07:42:09;;;;;;;10.30;3.15;;;12.50;99.90;;;;;;5056916;28;20087;-50
2020/12/06 07:44:49;;;;;;;8.93;2.78;;;12.50;99.90;;;;;;5057111;28;20029;-51
2020/12/06 07:47:16;;;;;;;8.63;3.80;;;12.40;99.90;;;;;;5056815;28;20035;-51
2020/12/06 07:49:55;;;;;;;7.63;3.30;;;12.50;99.90;;;;;;5056928;28;20373;-51
2020/12/06 07:52:27;;;;;;;13.38;3.60;;;12.40;99.90;;;;;;5057033;28;20036;-55
2020/12/06 07:55:04;;;;;;;5.80;2.75;;;12.30;99.90;;;;;;5056416;28;20500;-48
2020/12/06 07:57:48;;;;;;;7.95;2.30;;;12.20;99.90;;;;;;5056600;28;20377;-52
2020/12/06 08:00:23;;;;;;;9.48;3.03;;;12.10;99.90;;;;;;5056523;28;20037;-55
2020/12/06 08:02:57;;;;;;;6.30;3.20;;;12.40;99.90;;;;;;5056605;28;20496;-50
2020/12/06 08:05:28;;;;;;;8.98;4.60;;;12.30;99.90;;;;;;5056169;28;20025;-54
2020/12/06 08:08:18;;;;;;;20.80;4.88;;;12.30;99.90;;;;;;5056670;28;20371;-56
2020/12/06 08:10:54;;;;;;;9.80;3.72;;;12.20;99.90;;;;;;5056669;28;20025;-51
2020/12/06 08:13:20;;;;;;;7.38;3.70;;;12.10;99.90;;;;;;5056215;28;20028;-48
2020/12/06 08:15:46;;;;;;;9.80;4.50;;;12.10;99.90;;;;;;5055999;28;20028;-53
2020/12/06 08:18:18;;;;;;;7.32;2.90;;;12.10;99.90;;;;;;5056010;28;20029;-55
2020/12/06 08:20:54;;;;;;;6.65;3.25;;;12.00;99.90;;;;;;5056079;28;20052;-53
2020/12/06 08:23:37;;;;;;;6.10;2.58;;;11.90;99.90;;;;;;5056212;28;20032;-53
2020/12/06 08:26:04;;;;;;;8.20;3.15;;;12.00;99.90;;;;;;5056046;28;20029;-54
2020/12/06 08:28:30;;;;;;;7.65;3.83;;;12.00;99.90;;;;;;5056212;28;20032;-55
2020/12/06 08:30:57;;;;;;;9.98;3.50;;;12.00;99.90;;;;;;5055884;28;20028;-54
2020/12/06 08:33:25;;;;;;;7.30;3.10;;;12.00;99.90;;;;;;5055860;28;20108;-50
2020/12/06 08:35:52;;;;;;;7.30;3.10;;;12.00;99.90;;;;;;5055840;28;20477;-49
2020/12/06 08:38:26;;;;;;;5.57;2.80;;;12.00;99.90;;;;;;5055810;28;20104;-48
2020/12/06 08:41:07;;;;;;;8.02;2.92;;;12.00;99.90;;;;;;5055807;28;20028;-55
2020/12/06 08:44:02;;;;;;;9.60;2.75;;;11.90;99.90;;;;;;5055817;28;20116;-54
2020/12/06 08:46:30;;;;;;;4.97;2.90;;;12.00;99.90;;;;;;5055054;28;20112;-50
2020/12/06 08:48:59;;;;;;;4.78;1.83;;;11.90;99.90;;;;;;5055882;28;20381;-54
2020/12/06 08:51:38;;;;;;;7.53;2.28;;;12.00;99.90;;;;;;5055799;28;20471;-53
2020/12/06 08:54:07;;;;;;;4.03;1.95;;;11.90;99.90;;;;;;5055609;28;20445;-54
2020/12/06 08:56:37;;;;;;;6.63;2.20;;;11.90;99.90;;;;;;5055481;28;20536;-55
2020/12/06 08:59:05;;;;;;;3.83;2.00;;;11.90;99.90;;;;;;5037411;28;20458;-52
2020/12/06 09:01:31;;;;;;;8.55;2.90;;;11.90;99.90;;;;;;5055495;28;20044;-54
2020/12/06 09:03:57;;;;;;;7.30;3.95;;;11.80;99.90;;;;;;5055724;28;20064;-52
2020/12/06 09:06:23;;;;;;;4.20;1.92;;;11.90;99.90;;;;;;5055413;28;20053;-54
2020/12/06 09:08:49;;;;;;;5.10;2.22;;;11.90;99.90;;;;;;5055391;28;20029;-55
2020/12/06 09:11:17;;;;;;;6.68;2.35;;;11.90;99.90;;;;;;5055480;28;20048;-54
2020/12/06 09:13:43;;;;;;;3.70;1.98;;;11.80;99.90;;;;;;5055588;28;20400;-52
2020/12/06 09:16:09;;;;;;;7.63;3.38;;;11.80;99.90;;;;;;5055065;28;20029;-56
2020/12/06 09:18:35;;;;;;;10.65;3.88;;;11.80;99.90;;;;;;5040230;28;20064;-51
2020/12/06 09:21:01;;;;;;;8.55;4.38;;;11.90;99.90;;;;;;5048528;28;20378;-50
2020/12/06 09:23:27;;;;;;;9.65;4.28;;;11.90;99.90;;;;;;5037678;28;20029;-53
2020/12/06 09:25:53;;;;;;;8.50;3.97;;;12.00;99.90;;;;;;5041481;28;20032;-49
2020/12/06 09:28:19;;;;;;;7.40;2.97;;;12.10;99.90;;;;;;5042396;28;20059;-55
2020/12/06 09:30:44;;;;;;;4.25;2.58;;;12.10;99.90;;;;;;5037180;28;20077;-53
2020/12/06 09:33:10;;;;;;;6.75;2.88;;;12.10;99.90;;;;;;5050391;28;20447;-54
2020/12/06 09:35:36;;;;;;;3.83;2.35;;;12.10;99.90;;;;;;5041162;28;20033;-54
2020/12/06 09:38:02;;;;;;;4.47;3.03;;;12.10;99.90;;;;;;5043251;28;20068;-52
2020/12/06 09:40:28;;;;;;;7.72;4.40;;;12.10;99.90;;;;;;5051065;28;20489;-52
2020/12/06 09:42:54;;;;;;;5.85;3.88;;;12.10;99.90;;;;;;5044193;28;20389;-50
2020/12/06 09:45:20;;;;;;;10.80;4.10;;;12.10;99.90;;;;;;5041567;28;20116;-56
2020/12/06 09:47:46;;;;;;;7.82;4.97;;;12.20;99.90;;;;;;5034647;28;20064;-51
2020/12/06 09:50:12;;;;;;;14.48;7.15;;;12.20;99.90;;;;;;5041895;28;20029;-54
2020/12/06 09:52:37;;;;;;;6.53;2.63;;;12.10;99.90;;;;;;5054585;28;20362;-52
2020/12/06 09:55:03;;;;;;;6.35;2.80;;;12.20;99.90;;;;;;5054267;28;20025;-50
2020/12/06 09:57:29;;;;;;;6.13;3.20;;;12.10;99.90;;;;;;5053765;28;20068;-53
2020/12/06 09:59:55;;;;;;;8.05;4.22;;;12.20;99.90;;;;;;5053958;28;20040;-56
2020/12/06 10:02:21;;;;;;;6.28;3.92;;;12.20;99.90;;;;;;5054362;28;20029;-55
2020/12/06 10:04:47;;;;;;;7.47;4.43;;;12.10;99.90;;;;;;5054245;28;20025;-51
2020/12/06 10:07:12;;;;;;;5.70;3.03;;;12.20;99.90;;;;;;5054147;28;20377;-49
2020/12/06 10:09:38;;;;;;;8.15;4.72;;;12.10;99.90;;;;;;5054248;28;20148;-48
2020/12/06 10:12:04;;;;;;;8.18;5.35;;;12.10;99.90;;;;;;5054031;28;20036;-55
2020/12/06 10:14:30;;;;;;;8.65;5.60;;;12.20;99.90;;;;;;5054113;28;20021;-52
2020/12/06 10:16:56;;;;;;;12.05;6.95;;;12.20;99.90;;;;;;5054167;28;20025;-49
2020/12/06 10:19:21;;;;;;;5.53;3.00;;;12.20;99.90;;;;;;5054254;28;20029;-51
2020/12/06 10:21:47;;;;;;;4.82;1.25;;;12.20;99.90;;;;;;5054129;28;20052;-51
2020/12/06 10:24:13;;;;;;;3.00;1.10;;;12.20;99.90;;;;;;5054209;28;20355;-52
2020/12/06 10:26:39;;;;;;;3.67;1.50;;;12.30;99.90;;;;;;5053775;28;20032;-59
2020/12/06 10:29:05;;;;;;;4.05;1.83;;;12.20;99.90;;;;;;5053829;28;20020;-58
2020/12/06 10:31:30;;;;;;;5.53;3.10;;;12.20;99.90;;;;;;5053725;28;20025;-55
2020/12/06 10:33:56;;;;;;;5.07;1.83;;;12.20;99.90;;;;;;5053327;28;20036;-56
2020/12/06 10:36:22;;;;;;;3.15;0.90;;;12.30;99.90;;;;;;5045257;28;20021;-56
2020/12/06 10:38:48;;;;;;;2.33;1.27;;;12.30;99.90;;;;;;5033467;28;20102;-58
2020/12/06 10:41:14;;;;;;;2.53;1.05;;;12.30;99.90;;;;;;5033870;28;20029;-59
2020/12/06 10:43:40;;;;;;;6.88;2.08;;;12.30;99.90;;;;;;5033685;28;20373;-58
2020/12/06 10:46:06;;;;;;;7.38;2.63;;;12.30;99.90;;;;;;5033602;28;20713;-59
2020/12/06 10:48:31;;;;;;;6.90;2.60;;;12.20;99.90;;;;;;5033928;28;20037;-59
2020/12/06 10:50:57;;;;;;;6.47;3.67;;;12.30;99.90;;;;;;5033752;28;20029;-59
2020/12/06 10:53:23;;;;;;;6.65;1.80;;;12.30;99.90;;;;;;5033337;28;20540;-59
2020/12/06 10:55:49;;;;;;;4.28;2.65;;;12.20;99.90;;;;;;5033234;28;20041;-59
2020/12/06 10:58:15;;;;;;;9.48;3.50;;;12.20;99.90;;;;;;5033157;28;20110;-59
2020/12/06 11:00:40;;;;;;;9.18;5.45;;;12.30;99.90;;;;;;5033326;28;20517;-58
2020/12/06 11:03:06;;;;;;;4.63;2.95;;;12.30;99.90;;;;;;5033391;28;20049;-59
2020/12/06 11:05:32;;;;;;;6.90;3.30;;;12.30;99.90;;;;;;5033606;28;20021;-58
2020/12/06 11:07:58;;;;;;;4.25;2.53;;;12.30;99.90;;;;;;5033472;28;20470;-58
2020/12/06 11:10:24;;;;;;;8.45;3.50;;;12.30;99.90;;;;;;5033068;28;20396;-59
2020/12/06 11:12:49;;;;;;;9.93;6.35;;;12.20;99.90;;;;;;5031705;28;20022;-59
2020/12/06 11:15:15;;;;;;;10.40;5.80;;;12.20;99.90;;;;;;5033030;28;20034;-59
2020/12/06 11:17:41;;;;;;;8.52;3.83;;;12.10;99.90;;;;;;5033083;28;20026;-58
2020/12/06 11:20:07;;;;;;;7.70;3.03;;;12.10;99.90;;;;;;5033028;28;20041;-58
2020/12/06 11:22:33;;;;;;;9.45;3.03;;;12.10;99.90;;;;;;5033200;28;20026;-58
2020/12/06 11:24:59;;;;;;;8.73;3.97;;;12.10;99.90;;;;;;5033272;28;20030;-58
2020/12/06 11:27:25;;;;;;;12.40;3.70;;;12.10;99.90;;;;;;5033331;28;20018;-58
2020/12/06 11:29:53;;;;;;;6.50;2.90;;;12.00;99.90;;;;;;5033053;28;20590;-58
2020/12/06 11:32:25;;;;;;;9.63;3.85;;;12.00;99.90;;;;;;5032817;28;20045;-58
2020/12/06 11:34:52;;;;;;;14.77;8.13;;;11.90;99.90;;;;;;5033334;28;20029;-58
2020/12/06 11:37:18;;;;;;;22.30;14.20;;;12.00;99.90;;;;;;5033259;28;20119;-58
2020/12/06 11:39:43;;;;;;;11.82;4.95;;;12.00;99.90;;;;;;5032780;28;20049;-58
2020/12/06 11:42:09;;;;;;;7.57;4.88;;;12.00;99.90;;;;;;5032870;28;20025;-59
2020/12/06 11:44:35;;;;;;;7.50;4.53;;;12.00;99.90;;;;;;5033333;28;20120;-58
2020/12/06 11:47:01;;;;;;;10.85;5.20;;;12.00;99.90;;;;;;5032763;28;20049;-56
2020/12/06 11:49:27;;;;;;;14.77;5.60;;;12.10;99.90;;;;;;5037798;28;20025;-58
2020/12/06 11:51:55;;;;;;;17.17;8.48;;;12.00;99.90;;;;;;5032434;28;20053;-58
2020/12/06 11:54:21;;;;;;;11.38;6.47;;;12.10;99.90;;;;;;5032836;28;20038;-56
2020/12/06 11:56:50;;;;;;;10.50;5.13;;;12.00;99.90;;;;;;5046449;28;20136;-58
2020/12/06 11:59:17;;;;;;;22.13;7.97;;;12.00;99.90;;;;;;5035297;28;20386;-58
2020/12/06 12:01:43;;;;;;;4.07;2.13;;;12.00;99.90;;;;;;5032752;28;20072;-58
2020/12/06 12:04:09;;;;;;;9.27;3.13;;;11.90;99.90;;;;;;5032886;28;20033;-58
2020/12/06 12:06:35;;;;;;;13.30;6.43;;;11.90;99.90;;;;;;5032848;28;20025;-59
2020/12/06 12:09:01;;;;;;;7.82;3.80;;;12.00;99.90;;;;;;5032575;28;20029;-59
2020/12/06 12:11:27;;;;;;;6.05;2.40;;;11.90;99.90;;;;;;5033112;28;20382;-60
2020/12/06 12:13:53;;;;;;;8.98;3.67;;;12.00;99.90;;;;;;5032545;28;20037;-58
2020/12/06 12:16:19;;;;;;;15.80;5.82;;;11.90;99.90;;;;;;5032720;28;20024;-58
2020/12/06 12:18:45;;;;;;;8.15;3.55;;;11.90;99.90;;;;;;5032094;28;20041;-57
2020/12/06 12:21:11;;;;;;;6.30;1.90;;;11.70;99.90;;;;;;5033024;28;20029;-58
2020/12/06 12:23:37;;;;;;;6.15;2.58;;;11.70;99.90;;;;;;5036096;28;20393;-58
2020/12/06 12:26:03;;;;;;;9.43;1.90;;;11.70;99.90;;;;;;5036497;28;20025;-59
2020/12/06 12:28:29;;;;;;;3.08;1.30;;;11.60;99.90;;;;;;5036290;28;20057;-59
2020/12/06 12:30:55;;;;;;;6.80;1.20;;;11.50;99.90;;;;;;5036459;28;20057;-58
2020/12/06 12:33:21;;;;;;;3.78;1.48;;;11.60;99.90;;;;;;5036066;28;20055;-59
2020/12/06 12:35:47;;;;;;;33.25;10.95;;;11.50;99.90;;;;;;5035995;28;20521;-59
2020/12/06 12:38:13;;;;;;;30.10;10.00;;;;;;;;;;5035911;28;20072;-58
2020/12/06 12:40:39;;;;;;;29.75;9.90;;;;;;;;;;5035775;28;20446;-58
2020/12/06 12:43:05;;;;;;;17.00;5.50;;;;;;;;;;5036077;28;20025;-59
2020/12/06 12:45:31;;;;;;;18.25;6.32;;;;;;;;;;5035706;28;20049;-58
2020/12/06 12:47:57;;;;;;;13.27;3.88;;;;;;;;;;5035341;28;20033;-58